sensor_id;sensor_type;location;lat;lon;timestamp;pressure;altitude;pressure_sealevel;temperature;humidity
3780;BME280;1905;52.482;9.802;2023-05-25T00:00:34;102014.88;;;11.47;71.37
3780;BME280;1905;52.482;9.802;2023-05-25T00:03:12;102020.25;;;11.44;71.62
3780;BME280;1905;52.482;9.802;2023-05-25T00:05:41;102013.34;;;11.36;72.23
3780;BME280;1905;52.482;9.802;2023-05-25T00:08:09;102007.28;;;11.33;71.64
3780;BME280;1905;52.482;9.802;2023-05-25T00:10:37;102008.25;;;11.30;71.94
3780;BME280;1905;52.482;9.802;2023-05-25T00:13:04;102008.34;;;11.26;71.56
3780;BME280;1905;52.482;9.802;2023-05-25T00:15:32;102011.03;;;11.24;71.97
3780;BME280;1905;52.482;9.802;2023-05-25T00:17:59;102014.66;;;11.20;71.18
3780;BME280;1905;52.482;9.802;2023-05-25T00:20:27;102015.66;;;11.16;72.16
3780;BME280;1905;52.482;9.802;2023-05-25T00:22:56;102013.97;;;11.12;71.87
3780;BME280;1905;52.482;9.802;2023-05-25T00:25:24;102011.47;;;11.06;72.28
3780;BME280;1905;52.482;9.802;2023-05-25T00:27:51;102015.94;;;11.04;72.37
3780;BME280;1905;52.482;9.802;2023-05-25T00:30:19;102015.09;;;11.02;71.98
3780;BME280;1905;52.482;9.802;2023-05-25T00:32:46;102016.06;;;10.98;71.90
3780;BME280;1905;52.482;9.802;2023-05-25T00:35:14;102016.06;;;10.98;72.10
3780;BME280;1905;52.482;9.802;2023-05-25T00:37:44;102020.66;;;10.90;72.38
3780;BME280;1905;52.482;9.802;2023-05-25T00:40:14;102021.59;;;10.89;72.74
3780;BME280;1905;52.482;9.802;2023-05-25T00:42:42;102017.28;;;10.85;72.11
3780;BME280;1905;52.482;9.802;2023-05-25T00:45:10;102014.69;;;10.82;72.97
3780;BME280;1905;52.482;9.802;2023-05-25T00:47:38;102012.09;;;10.81;72.92
3780;BME280;1905;52.482;9.802;2023-05-25T00:50:08;102009.56;;;10.76;72.35
3780;BME280;1905;52.482;9.802;2023-05-25T00:52:36;102018.47;;;10.72;72.99
3780;BME280;1905;52.482;9.802;2023-05-25T00:55:07;102009.72;;;10.70;71.89
3780;BME280;1905;52.482;9.802;2023-05-25T00:57:39;102012.41;;;10.67;71.98
3780;BME280;1905;52.482;9.802;2023-05-25T01:00:12;102007.25;;;10.62;72.90
3780;BME280;1905;52.482;9.802;2023-05-25T01:02:41;102010.72;;;10.64;73.09
3780;BME280;1905;52.482;9.802;2023-05-25T01:05:10;102009.03;;;10.60;72.63
3780;BME280;1905;52.482;9.802;2023-05-25T01:07:41;102001.28;;;10.53;72.24
3780;BME280;1905;52.482;9.802;2023-05-25T01:10:10;102011.91;;;10.51;73.11
3780;BME280;1905;52.482;9.802;2023-05-25T01:12:43;102020.72;;;10.50;72.28
3780;BME280;1905;52.482;9.802;2023-05-25T01:15:12;102012.84;;;10.47;73.40
3780;BME280;1905;52.482;9.802;2023-05-25T01:17:40;102013.78;;;10.45;72.05
3780;BME280;1905;52.482;9.802;2023-05-25T01:20:09;102009.56;;;10.36;72.52
3780;BME280;1905;52.482;9.802;2023-05-25T01:22:42;102013.97;;;10.37;71.98
3780;BME280;1905;52.482;9.802;2023-05-25T01:25:13;102020.13;;;10.36;72.89
3780;BME280;1905;52.482;9.802;2023-05-25T01:27:49;102015.84;;;10.31;73.13
3780;BME280;1905;52.482;9.802;2023-05-25T01:30:18;102011.50;;;10.28;73.32
3780;BME280;1905;52.482;9.802;2023-05-25T01:32:49;102015.97;;;10.25;73.33
3780;BME280;1905;52.482;9.802;2023-05-25T01:35:17;102010.84;;;10.19;73.65
3780;BME280;1905;52.482;9.802;2023-05-25T01:37:50;102003.00;;;10.15;73.17
3780;BME280;1905;52.482;9.802;2023-05-25T01:40:18;101995.97;;;10.14;73.89
3780;BME280;1905;52.482;9.802;2023-05-25T01:42:46;102007.47;;;10.10;73.07
3780;BME280;1905;52.482;9.802;2023-05-25T01:45:13;102012.81;;;10.07;72.78
3780;BME280;1905;52.482;9.802;2023-05-25T01:47:58;102011.06;;;10.06;73.38
3780;BME280;1905;52.482;9.802;2023-05-25T01:50:35;102010.22;;;10.03;72.42
3780;BME280;1905;52.482;9.802;2023-05-25T01:53:08;102011.16;;;10.00;73.26
3780;BME280;1905;52.482;9.802;2023-05-25T01:55:41;102013.84;;;9.97;72.40
3780;BME280;1905;52.482;9.802;2023-05-25T01:58:13;102018.31;;;9.95;72.82
3780;BME280;1905;52.482;9.802;2023-05-25T02:00:41;102022.75;;;9.93;73.01
3780;BME280;1905;52.482;9.802;2023-05-25T02:03:09;102020.16;;;9.90;72.85
3780;BME280;1905;52.482;9.802;2023-05-25T02:05:40;102026.34;;;9.89;73.65
3780;BME280;1905;52.482;9.802;2023-05-25T02:08:10;102026.47;;;9.83;72.64
3780;BME280;1905;52.482;9.802;2023-05-25T02:10:38;102027.38;;;9.82;72.89
3780;BME280;1905;52.482;9.802;2023-05-25T02:13:05;102029.22;;;9.77;72.83
3780;BME280;1905;52.482;9.802;2023-05-25T02:15:33;102018.72;;;9.74;73.18
3780;BME280;1905;52.482;9.802;2023-05-25T02:18:00;102018.78;;;9.73;72.91
3780;BME280;1905;52.482;9.802;2023-05-25T02:20:31;102013.50;;;9.71;73.84
3780;BME280;1905;52.482;9.802;2023-05-25T02:22:58;102011.84;;;9.67;73.41
3780;BME280;1905;52.482;9.802;2023-05-25T02:25:27;102015.41;;;9.65;73.74
3780;BME280;1905;52.482;9.802;2023-05-25T02:27:55;102020.75;;;9.60;73.36
3780;BME280;1905;52.482;9.802;2023-05-25T02:30:23;102022.50;;;9.61;73.71
3780;BME280;1905;52.482;9.802;2023-05-25T02:32:53;102022.53;;;9.58;73.51
3780;BME280;1905;52.482;9.802;2023-05-25T02:35:22;102026.09;;;9.55;72.86
3780;BME280;1905;52.482;9.802;2023-05-25T02:37:49;102020.09;;;9.47;73.65
3780;BME280;1905;52.482;9.802;2023-05-25T02:40:17;102019.22;;;9.47;73.03
3780;BME280;1905;52.482;9.802;2023-05-25T02:42:46;102024.44;;;9.50;72.79
3780;BME280;1905;52.482;9.802;2023-05-25T02:45:15;102020.16;;;9.44;73.11
3780;BME280;1905;52.482;9.802;2023-05-25T02:47:43;102024.59;;;9.41;73.59
3780;BME280;1905;52.482;9.802;2023-05-25T02:50:11;102027.22;;;9.41;73.62
3780;BME280;1905;52.482;9.802;2023-05-25T02:52:43;102035.25;;;9.35;73.85
3780;BME280;1905;52.482;9.802;2023-05-25T02:55:11;102042.22;;;9.39;72.82
3780;BME280;1905;52.482;9.802;2023-05-25T02:57:41;102043.16;;;9.36;74.05
3780;BME280;1905;52.482;9.802;2023-05-25T03:00:14;102042.25;;;9.36;73.20
3780;BME280;1905;52.482;9.802;2023-05-25T03:02:42;102037.91;;;9.33;73.37
3780;BME280;1905;52.482;9.802;2023-05-25T03:05:13;102044.06;;;9.34;72.87
3780;BME280;1905;52.482;9.802;2023-05-25T03:07:43;102040.50;;;9.35;74.09
3780;BME280;1905;52.482;9.802;2023-05-25T03:10:10;102044.03;;;9.37;73.38
3780;BME280;1905;52.482;9.802;2023-05-25T03:12:38;102044.94;;;9.34;73.73
3780;BME280;1905;52.482;9.802;2023-05-25T03:15:07;102044.84;;;9.39;72.66
3780;BME280;1905;52.482;9.802;2023-05-25T03:17:40;102042.31;;;9.33;73.35
3780;BME280;1905;52.482;9.802;2023-05-25T03:20:08;102042.25;;;9.36;73.83
3780;BME280;1905;52.482;9.802;2023-05-25T03:22:40;102043.16;;;9.35;74.13
3780;BME280;1905;52.482;9.802;2023-05-25T03:25:08;102033.47;;;9.37;74.09
3780;BME280;1905;52.482;9.802;2023-05-25T03:27:37;102042.22;;;9.39;73.65
3780;BME280;1905;52.482;9.802;2023-05-25T03:30:07;102042.22;;;9.39;74.10
3780;BME280;1905;52.482;9.802;2023-05-25T03:32:36;102048.31;;;9.41;73.26
3780;BME280;1905;52.482;9.802;2023-05-25T03:35:07;102049.19;;;9.43;73.11
3780;BME280;1905;52.482;9.802;2023-05-25T03:37:36;102048.28;;;9.45;73.40
3780;BME280;1905;52.482;9.802;2023-05-25T03:40:05;102052.56;;;9.51;73.04
3780;BME280;1905;52.482;9.802;2023-05-25T03:42:35;102056.91;;;9.53;72.67
3780;BME280;1905;52.482;9.802;2023-05-25T03:45:04;102057.66;;;9.60;72.52
3780;BME280;1905;52.482;9.802;2023-05-25T03:47:35;102066.41;;;9.62;72.83
3780;BME280;1905;52.482;9.802;2023-05-25T03:50:03;102069.91;;;9.64;71.88
3780;BME280;1905;52.482;9.802;2023-05-25T03:52:33;102066.38;;;9.65;72.00
3780;BME280;1905;52.482;9.802;2023-05-25T03:55:01;102061.97;;;9.66;72.22
3780;BME280;1905;52.482;9.802;2023-05-25T03:57:30;102055.75;;;9.68;72.24
3780;BME280;1905;52.482;9.802;2023-05-25T03:59:58;102072.44;;;9.70;72.22
3780;BME280;1905;52.482;9.802;2023-05-25T04:02:25;102068.06;;;9.69;71.45
3780;BME280;1905;52.482;9.802;2023-05-25T04:04:53;102069.78;;;9.72;71.84
3780;BME280;1905;52.482;9.802;2023-05-25T04:07:24;102075.88;;;9.74;72.19
3780;BME280;1905;52.482;9.802;2023-05-25T04:09:54;102070.66;;;9.72;72.13
3780;BME280;1905;52.482;9.802;2023-05-25T04:12:23;102074.97;;;9.76;71.94
3780;BME280;1905;52.482;9.802;2023-05-25T04:14:51;102074.91;;;9.79;72.38
3780;BME280;1905;52.482;9.802;2023-05-25T04:17:18;102082.81;;;9.79;71.80
3780;BME280;1905;52.482;9.802;2023-05-25T04:19:51;102086.28;;;9.81;71.70
3780;BME280;1905;52.482;9.802;2023-05-25T04:22:19;102083.66;;;9.81;72.29
3780;BME280;1905;52.482;9.802;2023-05-25T04:24:47;102078.31;;;9.84;71.82
3780;BME280;1905;52.482;9.802;2023-05-25T04:27:16;102076.56;;;9.86;71.14
3780;BME280;1905;52.482;9.802;2023-05-25T04:29:45;102085.34;;;9.85;71.67
3780;BME280;1905;52.482;9.802;2023-05-25T04:32:37;102085.31;;;9.88;71.85
3780;BME280;1905;52.482;9.802;2023-05-25T04:35:36;102091.47;;;9.87;72.74
3780;BME280;1905;52.482;9.802;2023-05-25T04:38:06;102085.19;;;9.94;72.84
3780;BME280;1905;52.482;9.802;2023-05-25T04:40:33;102093.13;;;9.93;72.20
3780;BME280;1905;52.482;9.802;2023-05-25T04:43:02;102093.94;;;9.96;72.66
3780;BME280;1905;52.482;9.802;2023-05-25T04:45:30;102089.53;;;9.97;73.77
3780;BME280;1905;52.482;9.802;2023-05-25T04:48:00;102086.88;;;9.98;73.16
3780;BME280;1905;52.482;9.802;2023-05-25T04:50:28;102092.13;;;10.00;73.50
3780;BME280;1905;52.482;9.802;2023-05-25T04:52:55;102093.84;;;10.02;72.88
3780;BME280;1905;52.482;9.802;2023-05-25T04:55:23;102089.44;;;10.01;73.51
3780;BME280;1905;52.482;9.802;2023-05-25T04:57:54;102096.44;;;10.05;73.26
3780;BME280;1905;52.482;9.802;2023-05-25T05:00:23;102092.88;;;10.08;72.50
3780;BME280;1905;52.482;9.802;2023-05-25T05:02:53;102098.06;;;10.11;72.68
3780;BME280;1905;52.482;9.802;2023-05-25T05:05:22;102098.94;;;10.11;72.53
3780;BME280;1905;52.482;9.802;2023-05-25T05:07:51;102105.94;;;10.15;72.05
3780;BME280;1905;52.482;9.802;2023-05-25T05:10:20;102091.75;;;10.20;72.04
3780;BME280;1905;52.482;9.802;2023-05-25T05:12:52;102096.13;;;10.22;72.78
3780;BME280;1905;52.482;9.802;2023-05-25T05:15:20;102096.09;;;10.24;73.13
3780;BME280;1905;52.482;9.802;2023-05-25T05:17:50;102098.75;;;10.24;72.62
3780;BME280;1905;52.482;9.802;2023-05-25T05:20:18;102114.53;;;10.27;73.18
3780;BME280;1905;52.482;9.802;2023-05-25T05:22:46;102114.47;;;10.30;72.20
3780;BME280;1905;52.482;9.802;2023-05-25T05:25:13;102116.19;;;10.32;73.21
3780;BME280;1905;52.482;9.802;2023-05-25T05:27:41;102118.78;;;10.34;73.46
3780;BME280;1905;52.482;9.802;2023-05-25T05:30:17;102116.03;;;10.38;72.24
3780;BME280;1905;52.482;9.802;2023-05-25T05:32:44;102123.00;;;10.42;72.55
3780;BME280;1905;52.482;9.802;2023-05-25T05:35:14;102120.31;;;10.45;72.14
3780;BME280;1905;52.482;9.802;2023-05-25T05:37:44;102128.19;;;10.48;72.04
3780;BME280;1905;52.482;9.802;2023-05-25T05:40:13;102132.53;;;10.49;72.84
3780;BME280;1905;52.482;9.802;2023-05-25T05:42:41;102138.63;;;10.53;73.03
3780;BME280;1905;52.482;9.802;2023-05-25T05:45:09;102142.16;;;10.52;74.84
3780;BME280;1905;52.482;9.802;2023-05-25T05:47:37;102147.41;;;10.55;73.54
3780;BME280;1905;52.482;9.802;2023-05-25T05:50:06;102152.56;;;10.62;74.20
3780;BME280;1905;52.482;9.802;2023-05-25T05:52:37;102156.91;;;10.63;73.79
3780;BME280;1905;52.482;9.802;2023-05-25T05:55:05;102156.03;;;10.63;73.94
3780;BME280;1905;52.482;9.802;2023-05-25T05:57:35;102161.25;;;10.67;73.42
3780;BME280;1905;52.482;9.802;2023-05-25T06:00:03;102155.91;;;10.69;73.93
3780;BME280;1905;52.482;9.802;2023-05-25T06:02:40;102161.16;;;10.72;72.67
3780;BME280;1905;52.482;9.802;2023-05-25T06:05:11;102161.09;;;10.75;72.97
3780;BME280;1905;52.482;9.802;2023-05-25T06:07:42;102166.25;;;10.81;72.62
3780;BME280;1905;52.482;9.802;2023-05-25T06:10:11;102164.38;;;10.86;72.74
3780;BME280;1905;52.482;9.802;2023-05-25T06:12:38;102159.03;;;10.88;72.46
3780;BME280;1905;52.482;9.802;2023-05-25T06:15:07;102162.50;;;10.91;73.43
3780;BME280;1905;52.482;9.802;2023-05-25T06:17:36;102163.34;;;10.93;72.26
3780;BME280;1905;52.482;9.802;2023-05-25T06:20:05;102155.34;;;10.96;72.32
3780;BME280;1905;52.482;9.802;2023-05-25T06:22:33;102170.19;;;11.02;71.79
3780;BME280;1905;52.482;9.802;2023-05-25T06:25:02;102161.38;;;11.03;72.41
3780;BME280;1905;52.482;9.802;2023-05-25T06:27:30;102170.94;;;11.08;73.28
3780;BME280;1905;52.482;9.802;2023-05-25T06:29:59;102167.31;;;11.12;73.15
3780;BME280;1905;52.482;9.802;2023-05-25T06:32:27;102163.72;;;11.16;72.00
3780;BME280;1905;52.482;9.802;2023-05-25T06:34:55;102169.66;;;11.26;73.17
3780;BME280;1905;52.482;9.802;2023-05-25T06:37:22;102168.66;;;11.31;72.95
3780;BME280;1905;52.482;9.802;2023-05-25T06:39:50;102168.44;;;11.41;71.18
3780;BME280;1905;52.482;9.802;2023-05-25T06:42:20;102177.06;;;11.49;72.51
3780;BME280;1905;52.482;9.802;2023-05-25T06:44:54;102169.81;;;11.57;71.28
3780;BME280;1905;52.482;9.802;2023-05-25T06:47:24;102182.91;;;11.63;72.03
3780;BME280;1905;52.482;9.802;2023-05-25T06:49:51;102180.06;;;11.72;70.78
3780;BME280;1905;52.482;9.802;2023-05-25T06:52:19;102177.19;;;11.81;71.53
3780;BME280;1905;52.482;9.802;2023-05-25T06:54:47;102179.63;;;11.90;70.37
3780;BME280;1905;52.482;9.802;2023-05-25T06:57:14;102177.66;;;11.98;70.81
3780;BME280;1905;52.482;9.802;2023-05-25T06:59:43;102177.59;;;12.01;71.72
3780;BME280;1905;52.482;9.802;2023-05-25T07:02:10;102190.56;;;12.10;71.23
3780;BME280;1905;52.482;9.802;2023-05-25T07:04:38;102188.50;;;12.21;70.19
3780;BME280;1905;52.482;9.802;2023-05-25T07:07:06;102183.88;;;12.29;70.11
3780;BME280;1905;52.482;9.802;2023-05-25T07:09:34;102190.72;;;12.38;70.29
3780;BME280;1905;52.482;9.802;2023-05-25T07:12:02;102190.44;;;12.48;69.66
3780;BME280;1905;52.482;9.802;2023-05-25T07:14:33;102181.38;;;12.55;70.28
3780;BME280;1905;52.482;9.802;2023-05-25T07:17:02;102195.41;;;12.61;70.06
3780;BME280;1905;52.482;9.802;2023-05-25T07:19:29;102189.75;;;12.73;69.88
3780;BME280;1905;52.482;9.802;2023-05-25T07:21:57;102184.13;;;12.83;68.92
3780;BME280;1905;52.482;9.802;2023-05-25T07:24:25;102193.59;;;12.93;69.00
3780;BME280;1905;52.482;9.802;2023-05-25T07:26:52;102190.69;;;13.01;68.45
3780;BME280;1905;52.482;9.802;2023-05-25T07:29:20;102198.31;;;13.13;68.50
3780;BME280;1905;52.482;9.802;2023-05-25T07:31:47;102194.56;;;13.20;68.61
3780;BME280;1905;52.482;9.802;2023-05-25T07:34:16;102196.09;;;13.29;68.84
3780;BME280;1905;52.482;9.802;2023-05-25T07:36:44;102196.75;;;13.35;68.27
3780;BME280;1905;52.482;9.802;2023-05-25T07:39:11;102191.16;;;13.44;68.19
3780;BME280;1905;52.482;9.802;2023-05-25T07:41:39;102193.72;;;13.47;68.70
3780;BME280;1905;52.482;9.802;2023-05-25T07:44:07;102199.03;;;13.47;68.50
3780;BME280;1905;52.482;9.802;2023-05-25T07:46:34;102190.84;;;13.53;67.82
3780;BME280;1905;52.482;9.802;2023-05-25T07:49:02;102201.19;;;13.62;68.41
3780;BME280;1905;52.482;9.802;2023-05-25T07:51:31;102192.13;;;13.69;67.93
3780;BME280;1905;52.482;9.802;2023-05-25T07:53:59;102200.72;;;13.78;67.49
3780;BME280;1905;52.482;9.802;2023-05-25T07:56:26;102196.94;;;13.85;67.21
3780;BME280;1905;52.482;9.802;2023-05-25T07:58:54;102195.94;;;13.89;67.43
3780;BME280;1905;52.482;9.802;2023-05-25T08:01:22;102200.09;;;13.96;67.29
3780;BME280;1905;52.482;9.802;2023-05-25T08:03:52;102196.41;;;14.00;67.67
3780;BME280;1905;52.482;9.802;2023-05-25T08:06:20;102197.97;;;14.07;67.06
3780;BME280;1905;52.482;9.802;2023-05-25T08:08:49;102205.72;;;14.13;66.97
3780;BME280;1905;52.482;9.802;2023-05-25T08:11:21;102204.59;;;14.20;67.08
3780;BME280;1905;52.482;9.802;2023-05-25T08:13:49;102200.91;;;14.24;67.10
3780;BME280;1905;52.482;9.802;2023-05-25T08:16:17;102197.22;;;14.28;66.66
3780;BME280;1905;52.482;9.802;2023-05-25T08:18:45;102204.94;;;14.36;67.35
3780;BME280;1905;52.482;9.802;2023-05-25T08:21:13;102197.69;;;14.41;66.99
3780;BME280;1905;52.482;9.802;2023-05-25T08:23:40;102199.31;;;14.45;67.07
3780;BME280;1905;52.482;9.802;2023-05-25T08:26:10;102205.28;;;14.51;66.73
3780;BME280;1905;52.482;9.802;2023-05-25T08:28:57;102214.91;;;14.55;66.22
3780;BME280;1905;52.482;9.802;2023-05-25T08:31:26;102206.81;;;14.58;66.60
3780;BME280;1905;52.482;9.802;2023-05-25T08:33:53;102204.84;;;14.63;66.23
3780;BME280;1905;52.482;9.802;2023-05-25T08:36:21;102210.16;;;14.63;66.68
3780;BME280;1905;52.482;9.802;2023-05-25T08:38:48;102210.84;;;14.70;66.50
3780;BME280;1905;52.482;9.802;2023-05-25T08:41:18;102211.69;;;14.70;66.14
3780;BME280;1905;52.482;9.802;2023-05-25T08:43:46;102216.03;;;14.73;65.98
3780;BME280;1905;52.482;9.802;2023-05-25T08:46:17;102217.25;;;14.64;65.86
3780;BME280;1905;52.482;9.802;2023-05-25T08:48:53;102217.13;;;14.67;66.31
3780;BME280;1905;52.482;9.802;2023-05-25T08:51:22;102218.75;;;14.71;66.82
3780;BME280;1905;52.482;9.802;2023-05-25T08:53:50;102223.16;;;14.72;66.71
3780;BME280;1905;52.482;9.802;2023-05-25T08:56:21;102222.31;;;14.70;67.05
3780;BME280;1905;52.482;9.802;2023-05-25T08:58:56;102222.66;;;14.61;66.84
3780;BME280;1905;52.482;9.802;2023-05-25T09:01:36;102227.41;;;14.76;66.51
3780;BME280;1905;52.482;9.802;2023-05-25T09:04:05;102237.16;;;14.77;67.25
3780;BME280;1905;52.482;9.802;2023-05-25T09:06:33;102240.69;;;14.78;67.02
3780;BME280;1905;52.482;9.802;2023-05-25T09:09:04;102223.56;;;14.85;67.51
3780;BME280;1905;52.482;9.802;2023-05-25T09:11:34;102233.22;;;14.87;67.42
3780;BME280;1905;52.482;9.802;2023-05-25T09:14:06;102232.53;;;14.82;67.13
3780;BME280;1905;52.482;9.802;2023-05-25T09:16:36;102227.91;;;14.87;67.34
3780;BME280;1905;52.482;9.802;2023-05-25T09:19:04;102226.88;;;14.92;66.91
3780;BME280;1905;52.482;9.802;2023-05-25T09:21:31;102230.13;;;15.00;67.97
3780;BME280;1905;52.482;9.802;2023-05-25T09:23:59;102228.84;;;15.10;67.22
3780;BME280;1905;52.482;9.802;2023-05-25T09:26:30;102231.84;;;15.01;67.96
3780;BME280;1905;52.482;9.802;2023-05-25T09:28:59;102228.03;;;15.08;67.97
3780;BME280;1905;52.482;9.802;2023-05-25T09:31:27;102232.78;;;15.23;67.36
3780;BME280;1905;52.482;9.802;2023-05-25T09:33:55;102232.31;;;15.35;66.60
3780;BME280;1905;52.482;9.802;2023-05-25T09:36:25;102231.25;;;15.39;66.43
3780;BME280;1905;52.482;9.802;2023-05-25T09:38:53;102233.53;;;15.49;65.74
3780;BME280;1905;52.482;9.802;2023-05-25T09:41:22;102232.38;;;15.57;65.54
3780;BME280;1905;52.482;9.802;2023-05-25T09:43:53;102225.81;;;15.65;65.92
3780;BME280;1905;52.482;9.802;2023-05-25T09:46:38;102231.72;;;15.73;65.03
3780;BME280;1905;52.482;9.802;2023-05-25T09:49:07;102226.50;;;15.70;65.72
3780;BME280;1905;52.482;9.802;2023-05-25T09:51:35;102226.94;;;15.81;64.93
3780;BME280;1905;52.482;9.802;2023-05-25T09:54:03;102233.00;;;15.85;65.80
3780;BME280;1905;52.482;9.802;2023-05-25T09:56:31;102239.69;;;15.95;65.12
3780;BME280;1905;52.482;9.802;2023-05-25T09:58:59;102245.25;;;16.11;65.30
3780;BME280;1905;52.482;9.802;2023-05-25T10:01:27;102252.06;;;16.18;65.70
3780;BME280;1905;52.482;9.802;2023-05-25T10:03:56;102246.34;;;16.27;64.41
3780;BME280;1905;52.482;9.802;2023-05-25T10:06:31;102245.34;;;16.29;65.07
3780;BME280;1905;52.482;9.802;2023-05-25T10:08:59;102253.16;;;16.34;63.70
3780;BME280;1905;52.482;9.802;2023-05-25T10:11:28;102257.34;;;16.39;64.96
3780;BME280;1905;52.482;9.802;2023-05-25T10:13:55;102264.31;;;16.43;63.45
3780;BME280;1905;52.482;9.802;2023-05-25T10:16:32;102250.91;;;16.45;64.34
3780;BME280;1905;52.482;9.802;2023-05-25T10:19:05;102261.44;;;16.48;63.69
3780;BME280;1905;52.482;9.802;2023-05-25T10:21:34;102260.38;;;16.52;64.10
3780;BME280;1905;52.482;9.802;2023-05-25T10:24:05;102256.31;;;16.43;63.77
3780;BME280;1905;52.482;9.802;2023-05-25T10:26:35;102257.63;;;16.55;63.66
3780;BME280;1905;52.482;9.802;2023-05-25T10:29:07;102247.66;;;16.58;64.02
3780;BME280;1905;52.482;9.802;2023-05-25T10:31:36;102255.50;;;16.63;64.25
3780;BME280;1905;52.482;9.802;2023-05-25T10:34:06;102253.19;;;16.74;63.83
3780;BME280;1905;52.482;9.802;2023-05-25T10:36:36;102256.69;;;16.76;63.63
3780;BME280;1905;52.482;9.802;2023-05-25T10:39:06;102260.81;;;16.83;62.71
3780;BME280;1905;52.482;9.802;2023-05-25T10:41:34;102252.53;;;16.89;63.54
3780;BME280;1905;52.482;9.802;2023-05-25T10:44:02;102253.97;;;16.96;62.90
3780;BME280;1905;52.482;9.802;2023-05-25T10:46:30;102253.84;;;16.99;62.86
3780;BME280;1905;52.482;9.802;2023-05-25T10:48:57;102252.91;;;17.00;62.58
3780;BME280;1905;52.482;9.802;2023-05-25T10:51:39;102254.63;;;17.01;62.76
3780;BME280;1905;52.482;9.802;2023-05-25T10:54:06;102256.25;;;17.05;63.27
3780;BME280;1905;52.482;9.802;2023-05-25T10:56:34;102257.78;;;17.11;62.73
3780;BME280;1905;52.482;9.802;2023-05-25T10:59:02;102254.88;;;17.15;62.49
3780;BME280;1905;52.482;9.802;2023-05-25T11:01:29;102249.25;;;17.21;62.76
3780;BME280;1905;52.482;9.802;2023-05-25T11:04:13;102241.75;;;17.30;62.55
3780;BME280;1905;52.482;9.802;2023-05-25T11:07:06;102250.22;;;17.39;62.40
3780;BME280;1905;52.482;9.802;2023-05-25T11:09:40;102236.94;;;17.38;62.02
3780;BME280;1905;52.482;9.802;2023-05-25T11:12:20;102237.44;;;17.46;62.05
3780;BME280;1905;52.482;9.802;2023-05-25T11:15:13;102234.91;;;17.61;61.73
3780;BME280;1905;52.482;9.802;2023-05-25T11:17:45;102240.75;;;17.69;61.83
3780;BME280;1905;52.482;9.802;2023-05-25T11:20:21;102237.88;;;17.74;61.64
3780;BME280;1905;52.482;9.802;2023-05-25T11:22:51;102244.38;;;17.87;62.11
3780;BME280;1905;52.482;9.802;2023-05-25T11:25:36;102231.00;;;17.87;61.56
3780;BME280;1905;52.482;9.802;2023-05-25T11:28:04;102229.41;;;17.83;60.73
3780;BME280;1905;52.482;9.802;2023-05-25T11:30:32;102237.63;;;17.97;61.36
3780;BME280;1905;52.482;9.802;2023-05-25T11:33:01;102229.28;;;18.03;61.46
3780;BME280;1905;52.482;9.802;2023-05-25T11:35:30;102231.53;;;18.12;60.96
3780;BME280;1905;52.482;9.802;2023-05-25T11:38:00;102220.59;;;18.17;60.98
3780;BME280;1905;52.482;9.802;2023-05-25T11:40:29;102224.75;;;18.22;60.29
3780;BME280;1905;52.482;9.802;2023-05-25T11:42:58;102225.47;;;18.26;61.09
3780;BME280;1905;52.482;9.802;2023-05-25T11:45:31;102220.81;;;18.29;60.70
3780;BME280;1905;52.482;9.802;2023-05-25T11:47:59;102216.09;;;18.34;60.34
3780;BME280;1905;52.482;9.802;2023-05-25T11:50:27;102218.59;;;18.37;60.14
3780;BME280;1905;52.482;9.802;2023-05-25T11:52:54;102212.22;;;18.40;60.63
3780;BME280;1905;52.482;9.802;2023-05-25T11:55:23;102220.19;;;18.41;60.23
3780;BME280;1905;52.482;9.802;2023-05-25T11:57:55;102216.66;;;18.41;59.50
3780;BME280;1905;52.482;9.802;2023-05-25T12:00:24;102206.19;;;18.36;60.55
3780;BME280;1905;52.482;9.802;2023-05-25T12:02:52;102209.75;;;18.54;60.39
3780;BME280;1905;52.482;9.802;2023-05-25T12:05:21;102209.22;;;18.48;59.05
3780;BME280;1905;52.482;9.802;2023-05-25T12:07:51;102215.66;;;18.61;59.97
3780;BME280;1905;52.482;9.802;2023-05-25T12:10:18;102216.13;;;18.69;59.78
3780;BME280;1905;52.482;9.802;2023-05-25T12:12:49;102212.97;;;18.61;58.12
3780;BME280;1905;52.482;9.802;2023-05-25T12:15:20;102207.66;;;18.76;59.43
3780;BME280;1905;52.482;9.802;2023-05-25T12:17:49;102205.28;;;18.87;59.52
3780;BME280;1905;52.482;9.802;2023-05-25T12:20:18;102204.69;;;18.98;59.77
3780;BME280;1905;52.482;9.802;2023-05-25T12:22:46;102203.34;;;19.07;59.52
3780;BME280;1905;52.482;9.802;2023-05-25T12:25:18;102200.66;;;19.07;58.21
3780;BME280;1905;52.482;9.802;2023-05-25T12:28:08;102199.63;;;19.09;58.81
3780;BME280;1905;52.482;9.802;2023-05-25T12:30:36;102192.31;;;19.13;58.32
3780;BME280;1905;52.482;9.802;2023-05-25T12:33:03;102182.78;;;19.23;58.24
3780;BME280;1905;52.482;9.802;2023-05-25T12:35:43;102176.78;;;19.35;58.80
3780;BME280;1905;52.482;9.802;2023-05-25T12:38:13;102175.66;;;19.39;57.92
3780;BME280;1905;52.482;9.802;2023-05-25T12:40:41;102172.53;;;19.46;57.44
3780;BME280;1905;52.482;9.802;2023-05-25T12:43:12;102167.78;;;19.51;57.01
3780;BME280;1905;52.482;9.802;2023-05-25T12:45:42;102169.19;;;19.58;57.78
3780;BME280;1905;52.482;9.802;2023-05-25T12:48:10;102173.56;;;19.59;57.97
3780;BME280;1905;52.482;9.802;2023-05-25T12:50:38;102173.31;;;19.64;57.47
3780;BME280;1905;52.482;9.802;2023-05-25T12:53:06;102171.75;;;19.60;57.40
3780;BME280;1905;52.482;9.802;2023-05-25T12:55:34;102166.38;;;19.60;57.17
3780;BME280;1905;52.482;9.802;2023-05-25T12:58:04;102163.88;;;19.73;57.39
3780;BME280;1905;52.482;9.802;2023-05-25T13:00:35;102166.97;;;19.81;57.40
3780;BME280;1905;52.482;9.802;2023-05-25T13:03:04;102164.13;;;19.84;57.09
3780;BME280;1905;52.482;9.802;2023-05-25T13:05:34;102166.56;;;19.73;56.08
3780;BME280;1905;52.482;9.802;2023-05-25T13:08:03;102164.31;;;19.81;56.76
3780;BME280;1905;52.482;9.802;2023-05-25T13:10:32;102170.88;;;19.75;56.61
3780;BME280;1905;52.482;9.802;2023-05-25T13:13:00;102163.75;;;19.90;57.39
3780;BME280;1905;52.482;9.802;2023-05-25T13:15:30;102171.03;;;19.88;56.31
3780;BME280;1905;52.482;9.802;2023-05-25T13:17:58;102170.09;;;19.89;56.68
3780;BME280;1905;52.482;9.802;2023-05-25T13:20:27;102165.91;;;19.99;56.15
3780;BME280;1905;52.482;9.802;2023-05-25T13:22:57;102162.50;;;20.11;55.85
3780;BME280;1905;52.482;9.802;2023-05-25T13:25:24;102161.94;;;20.20;55.97